Map

Track Data

SID SEASON NUMBER BASIN SUBBASIN NAME ISO_TIME NATURE LAT LON WMO_WIND WMO_PRES WMO_AGENCY TRACK_TYPE DIST2LAND LANDFALL IFLAG USA_AGENCY USA_ATCF_ID USA_LAT USA_LON USA_RECORD USA_STATUS USA_WIND USA_PRES USA_SSHS USA_R34_NE USA_R34_SE USA_R34_SW USA_R34_NW USA_R50_NE USA_R50_SE USA_R50_SW USA_R50_NW USA_R64_NE USA_R64_SE USA_R64_SW USA_R64_NW USA_POCI USA_ROCI USA_RMW USA_EYE TOKYO_LAT TOKYO_LON TOKYO_GRADE TOKYO_WIND TOKYO_PRES TOKYO_R50_DIR TOKYO_R50_LONG TOKYO_R50_SHORT TOKYO_R30_DIR TOKYO_R30_LONG TOKYO_R30_SHORT TOKYO_LAND CMA_LAT CMA_LON CMA_CAT CMA_WIND CMA_PRES HKO_LAT HKO_LON HKO_CAT HKO_WIND HKO_PRES NEWDELHI_LAT NEWDELHI_LON NEWDELHI_GRADE NEWDELHI_WIND NEWDELHI_PRES NEWDELHI_CI NEWDELHI_DP NEWDELHI_POCI REUNION_LAT REUNION_LON REUNION_TYPE REUNION_WIND REUNION_PRES REUNION_TNUM REUNION_CI REUNION_RMW REUNION_R34_NE REUNION_R34_SE REUNION_R34_SW REUNION_R34_NW REUNION_R50_NE REUNION_R50_SE REUNION_R50_SW REUNION_R50_NW REUNION_R64_NE REUNION_R64_SE REUNION_R64_SW REUNION_R64_NW BOM_LAT BOM_LON BOM_TYPE BOM_WIND BOM_PRES BOM_TNUM BOM_CI BOM_RMW BOM_R34_NE BOM_R34_SE BOM_R34_SW BOM_R34_NW BOM_R50_NE BOM_R50_SE BOM_R50_SW BOM_R50_NW BOM_R64_NE BOM_R64_SE BOM_R64_SW BOM_R64_NW BOM_ROCI BOM_POCI BOM_EYE BOM_POS_METHOD BOM_PRES_METHOD NADI_LAT NADI_LON NADI_CAT NADI_WIND NADI_PRES WELLINGTON_LAT WELLINGTON_LON WELLINGTON_WIND WELLINGTON_PRES DS824_LAT DS824_LON DS824_STAGE DS824_WIND DS824_PRES TD9636_LAT TD9636_LON TD9636_STAGE TD9636_WIND TD9636_PRES TD9635_LAT TD9635_LON TD9635_WIND TD9635_PRES TD9635_ROCI NEUMANN_LAT NEUMANN_LON NEUMANN_CLASS NEUMANN_WIND NEUMANN_PRES MLC_LAT MLC_LON MLC_CLASS MLC_WIND MLC_PRES USA_GUST BOM_GUST BOM_GUST_PER REUNION_GUST REUNION_GUST_PER USA_SEAHGT USA_SEARAD_NE USA_SEARAD_SE USA_SEARAD_SW USA_SEARAD_NW STORM_SPEED STORM_DIR
1917239N13132 1917 35 WP MM NOT_NAMED 1917-08-27 09:00:00 NR 12.8000 131.500 main 652 609 __________O___ -1 12.8000 131.500 2 16 319
1917239N13132 1917 35 WP MM NOT_NAMED 1917-08-27 12:00:00 NR 13.3927 130.966 main 611 570 __________P___ -1 13.3927 130.966 2 16 318
1917239N13132 1917 35 WP MM NOT_NAMED 1917-08-27 15:00:00 NR 13.9780 130.424 main 567 541 __________P___ -1 13.9780 130.424 2 16 317
1917239N13132 1917 35 WP MM NOT_NAMED 1917-08-27 18:00:00 NR 14.5493 129.871 main 541 523 __________P___ -1 14.5493 129.871 2 16 316
1917239N13132 1917 35 WP MM NOT_NAMED 1917-08-27 21:00:00 NR 15.1000 129.300 main 523 500 __________O___ -1 15.1000 129.300 2 16 314
1917239N13132 1917 35 WP MM NOT_NAMED 1917-08-28 00:00:00 NR 15.6289 128.713 main 500 476 __________P___ -1 15.6289 128.713 2 15 313
1917239N13132 1917 35 WP MM NOT_NAMED 1917-08-28 03:00:00 NR 16.1554 128.132 main 473 457 __________P___ -1 16.1554 128.132 2 15 315
1917239N13132 1917 35 WP MM NOT_NAMED 1917-08-28 06:00:00 NR 16.7041 127.585 main 464 464 __________P___ -1 16.7041 127.585 2 15 319
1917239N13132 1917 35 WP MM NOT_NAMED 1917-08-28 09:00:00 NR 17.3000 127.100 main 475 449 __________O___ -1 17.3000 127.100 2 16 325
1917239N13132 1917 35 WP MM NOT_NAMED 1917-08-28 12:00:00 NR 17.9946 126.623 main 449 412 __________P___ -1 17.9946 126.623 2 17 330
1917239N13132 1917 35 WP MM NOT_NAMED 1917-08-28 15:00:00 NR 18.7345 126.220 main 412 394 __________P___ -1 18.7345 126.220 2 16 336
1917239N13132 1917 35 WP MM NOT_NAMED 1917-08-28 18:00:00 NR 19.4822 125.933 main 398 398 __________P___ -1 19.4822 125.933 2 15 345
1917239N13132 1917 35 WP MM NOT_NAMED 1917-08-28 21:00:00 NR 20.2000 125.800 main 418 418 __________O___ -1 20.2000 125.800 2 14 357
1917239N13132 1917 35 WP MM NOT_NAMED 1917-08-29 00:00:00 NR 20.8883 125.856 main 469 469 __________P___ -1 20.8883 125.856 2 14 10
1917239N13132 1917 35 WP MM NOT_NAMED 1917-08-29 03:00:00 NR 21.5347 126.066 main 515 507 __________P___ -1 21.5347 126.066 2 13 21
1917239N13132 1917 35 WP MM NOT_NAMED 1917-08-29 06:00:00 NR 22.1137 126.369 main 525 522 __________P___ -1 22.1137 126.369 2 12 29
1917239N13132 1917 35 WP MM NOT_NAMED 1917-08-29 09:00:00 NR 22.6000 126.700 main 533 528 __________O___ -1 22.6000 126.700 2 10 32
1917239N13132 1917 35 WP MM NOT_NAMED 1917-08-29 12:00:00 NR 22.9764 126.957 main 545 541 __________P___ -1 22.9764 126.957 2 8 36
1917239N13132 1917 35 WP MM NOT_NAMED 1917-08-29 15:00:00 NR 23.2623 127.229 main 554 554 __________P___ -1 23.2623 127.229 2 7 45
1917239N13132 1917 35 WP MM NOT_NAMED 1917-08-29 18:00:00 NR 23.4920 127.510 main 579 579 __________P___ -1 23.4920 127.510 2 7 50
1917239N13132 1917 35 WP MM NOT_NAMED 1917-08-29 21:00:00 NR 23.7000 127.800 main 604 604 __________O___ -1 23.7000 127.800 2 7 51
1917239N13132 1917 35 WP MM NOT_NAMED 1917-08-30 00:00:00 NR 23.9353 128.101 main 629 626 __________P___ -1 23.9353 128.101 2 7 51
1917239N13132 1917 35 WP MM NOT_NAMED 1917-08-30 03:00:00 NR 24.1575 128.408 main 652 652 __________P___ -1 24.1575 128.408 2 7 52
1917239N13132 1917 35 WP MM NOT_NAMED 1917-08-30 06:00:00 NR 24.3759 128.711 main 679 679 __________P___ -1 24.3759 128.711 2 7 51
1917239N13132 1917 35 WP MM NOT_NAMED 1917-08-30 09:00:00 NR 24.6000 129.000 main 707 707 __________O___ -1 24.6000 129.000 2 7 46
1917239N13132 1917 35 WP MM NOT_NAMED 1917-08-30 12:00:00 NR 24.8257 129.225 main 707 681 __________P___ -1 24.8257 129.225 2 6 41
1917239N13132 1917 35 WP MM NOT_NAMED 1917-08-30 15:00:00 NR 25.0612 129.442 main 670 643 __________P___ -1 25.0612 129.442 2 6 41
1917239N13132 1917 35 WP MM NOT_NAMED 1917-08-30 18:00:00 NR 25.3161 129.688 main 643 606 __________P___ -1 25.3161 129.688 2 7 43
1917239N13132 1917 35 WP MM NOT_NAMED 1917-08-30 21:00:00 NR 25.6000 130.000 main 606 570 __________O___ -1 25.6000 130.000 2 9 50
1917239N13132 1917 35 WP MM NOT_NAMED 1917-08-31 00:00:00 NR 25.9103 130.464 main 569 535 __________P___ -1 25.9103 130.464 2 11 54
1917239N13132 1917 35 WP MM NOT_NAMED 1917-08-31 03:00:00 NR 26.2493 130.991 main 536 495 __________P___ -1 26.2493 130.991 2 12 54
1917239N13132 1917 35 WP MM NOT_NAMED 1917-08-31 06:00:00 NR 26.6135 131.523 main 497 464 __________P___ -1 26.6135 131.523 2 12 50
1917239N13132 1917 35 WP MM NOT_NAMED 1917-08-31 09:00:00 NR 27.0000 132.000 main 464 430 __________O___ -1 27.0000 132.000 2 11 42
1917239N13132 1917 35 WP MM NOT_NAMED 1917-08-31 12:00:00 NR 27.4351 132.364 main 434 391 __________P___ -1 27.4351 132.364 2 11 34
1917239N13132 1917 35 WP MM NOT_NAMED 1917-08-31 15:00:00 NR 27.8866 132.663 main 396 368 __________P___ -1 27.8866 132.663 2 10 28
1917239N13132 1917 35 WP MM NOT_NAMED 1917-08-31 18:00:00 NR 28.3198 132.905 main 368 342 __________P___ -1 28.3198 132.905 2 9 25
1917239N13132 1917 35 WP MM NOT_NAMED 1917-08-31 21:00:00 NR 28.7000 133.100 main 342 323 __________O___ -1 28.7000 133.100 2 7 27
1917239N13132 1917 35 WP MM NOT_NAMED 1917-09-01 00:00:00 NR 28.9659 133.278 main 323 311 __________P___ -1 28.9659 133.278 2 6 30
1917239N13132 1917 35 WP MM NOT_NAMED 1917-09-01 03:00:00 NR 29.1796 133.412 main 311 300 __________P___ -1 29.1796 133.412 2 5 27
1917239N13132 1917 35 WP MM NOT_NAMED 1917-09-01 06:00:00 NR 29.3785 133.515 main 300 290 __________P___ -1 29.3785 133.515 2 5 21
1917239N13132 1917 35 WP MM NOT_NAMED 1917-09-01 09:00:00 NR 29.6000 133.600 main 290 276 __________O___ -1 29.6000 133.600 2 6 17
1917239N13132 1917 35 WP MM NOT_NAMED 1917-09-01 12:00:00 NR 29.9043 133.697 main 276 263 __________P___ -1 29.9043 133.697 2 7 14
1917239N13132 1917 35 WP MM NOT_NAMED 1917-09-01 15:00:00 NR 30.2350 133.780 main 265 245 __________P___ -1 30.2350 133.780 2 7 11
1917239N13132 1917 35 WP MM NOT_NAMED 1917-09-01 18:00:00 NR 30.5731 133.847 main 245 217 __________P___ -1 30.5731 133.847 2 7 9
1917239N13132 1917 35 WP MM NOT_NAMED 1917-09-01 21:00:00 NR 30.9000 133.900 main 217 187 __________O___ -1 30.9000 133.900 2 6 7
1917239N13132 1917 35 WP MM NOT_NAMED 1917-09-02 00:00:00 NR 31.1812 133.944 main 187 172 __________P___ -1 31.1812 133.944 2 6 5
1917239N13132 1917 35 WP MM NOT_NAMED 1917-09-02 03:00:00 NR 31.4500 133.973 main 172 145 __________P___ -1 31.4500 133.973 2 5 5
1917239N13132 1917 35 WP MM NOT_NAMED 1917-09-02 06:00:00 NR 31.7187 133.990 main 145 122 __________P___ -1 31.7187 133.990 2 6 0
1917239N13132 1917 35 WP MM NOT_NAMED 1917-09-02 09:00:00 NR 32.0000 134.000 main 122 109 __________O___ -1 32.0000 134.000 2 5 1
1917239N13132 1917 35 WP MM NOT_NAMED 1917-09-02 12:00:00 NR 32.2538 134.003 main 102 80 __________P___ -1 32.2538 134.003 2 5 3
1917239N13132 1917 35 WP MM NOT_NAMED 1917-09-02 15:00:00 NR 32.5301 134.000 main 80 48 __________P___ -1 32.5301 134.000 2 6 358
1917239N13132 1917 35 WP MM NOT_NAMED 1917-09-02 18:00:00 NR 32.8663 133.997 main 38 9 __________P___ -1 32.8663 133.997 2 8 358
1917239N13132 1917 35 WP MM NOT_NAMED 1917-09-02 21:00:00 NR 33.3000 134.000 main 9 0 __________O___ -1 33.3000 134.000 2 10 359
1917239N13132 1917 35 WP MM NOT_NAMED 1917-09-03 00:00:00 NR 33.8742 133.972 main 0 0 __________P___ -1 33.8742 133.972 2 12 358
1917239N13132 1917 35 WP MM NOT_NAMED 1917-09-03 03:00:00 NR 34.5446 133.957 main 9 0 __________P___ -1 34.5446 133.957 2 14 1
1917239N13132 1917 35 WP MM NOT_NAMED 1917-09-03 06:00:00 NR 35.2678 133.988 main 0 0 __________P___ -1 35.2678 133.988 2 15 5
1917239N13132 1917 35 WP MM NOT_NAMED 1917-09-03 09:00:00 NR 36.0000 134.100 main 52 52 __________O___ -1 36.0000 134.100 2 15 11
1917239N13132 1917 35 WP MM NOT_NAMED 1917-09-03 12:00:00 NR 36.7361 134.327 main 122 122 __________P___ -1 36.7361 134.327 2 15 17
1917239N13132 1917 35 WP MM NOT_NAMED 1917-09-03 15:00:00 NR 37.4627 134.640 main 188 175 __________P___ -1 37.4627 134.640 2 15 21
1917239N13132 1917 35 WP MM NOT_NAMED 1917-09-03 18:00:00 NR 38.1330 135.009 main 176 173 __________P___ -1 38.1330 135.009 2 14 26
1917239N13132 1917 35 WP MM NOT_NAMED 1917-09-03 21:00:00 NR 38.7000 135.400 main 189 189 __________O___ -1 38.7000 135.400 2 12 31
1917239N13132 1917 35 WP MM NOT_NAMED 1917-09-04 00:00:00 NR 39.1320 135.767 main 208 208 __________P___ -1 39.1320 135.767 2 10 37
1917239N13132 1917 35 WP MM NOT_NAMED 1917-09-04 03:00:00 NR 39.4572 136.145 main 241 237 __________P___ -1 39.4572 136.145 2 8 46
1917239N13132 1917 35 WP MM NOT_NAMED 1917-09-04 06:00:00 NR 39.7039 136.526 main 257 238 __________P___ -1 39.7039 136.526 2 7 53
1917239N13132 1917 35 WP MM NOT_NAMED 1917-09-04 09:00:00 NR 39.9000 136.900 main 238 213 __________O___ -1 39.9000 136.900 2 7 54
1917239N13132 1917 35 WP MM NOT_NAMED 1917-09-04 12:00:00 NR 40.1129 137.254 main 205 183 __________P___ -1 40.1129 137.254 2 7 55
1917239N13132 1917 35 WP MM NOT_NAMED 1917-09-04 15:00:00 NR 40.2818 137.601 main 183 162 __________P___ -1 40.2818 137.601 2 6 61
1917239N13132 1917 35 WP MM NOT_NAMED 1917-09-04 18:00:00 NR 40.4098 137.947 main 162 135 __________P___ -1 40.4098 137.947 2 6 68
1917239N13132 1917 35 WP MM NOT_NAMED 1917-09-04 21:00:00 NR 40.5000 138.300 main 135 100 __________O___ -1 40.5000 138.300 2 6 74
1917239N13132 1917 35 WP MM NOT_NAMED 1917-09-05 00:00:00 NR 40.5774 138.693 main 100 67 __________P___ -1 40.5774 138.693 2 6 79
1917239N13132 1917 35 WP MM NOT_NAMED 1917-09-05 03:00:00 NR 40.6179 139.088 main 67 42 __________P___ -1 40.6179 139.088 2 6 85
1917239N13132 1917 35 WP MM NOT_NAMED 1917-09-05 06:00:00 NR 40.6244 139.464 main 33 8 __________P___ -1 40.6244 139.464 2 5 92
1917239N13132 1917 35 WP MM NOT_NAMED 1917-09-05 09:00:00 NR 40.6000 139.800 main 8 0 __________O___ -1 40.6000 139.800 2 5 99
1917239N13132 1917 35 WP MM NOT_NAMED 1917-09-05 12:00:00 NR 40.5488 140.080 main 0 0 __________P___ -1 40.5488 140.080 2 4 107
1917239N13132 1917 35 WP MM NOT_NAMED 1917-09-05 15:00:00 NR 40.4772 140.313 main 0 0 __________P___ -1 40.4772 140.313 2 4 115
1917239N13132 1917 35 WP MM NOT_NAMED 1917-09-05 18:00:00 NR 40.3921 140.514 main 0 0 __________P___ -1 40.3921 140.514 2 3 121
1917239N13132 1917 35 WP MM NOT_NAMED 1917-09-05 21:00:00 NR 40.3000 140.700 main 0 __________O___ -1 40.3000 140.700 2 3 123

Digital Typhoon Data and Search

About IBTrACS Database

This database is a web-friendly format of International Best Track Archive for Climate Stewardship (IBTrACS), a global best track data archive curated by NOAA dating back to 1842.

Updated: 2021-10-27